createdAt,value
2022-11-14T00:01:40.726Z,17.85
2022-11-14T00:04:07.381Z,21.42
2022-11-14T00:06:34.347Z,21.33
2022-11-14T00:09:00.860Z,21.92
2022-11-14T00:11:27.830Z,22.10
2022-11-14T00:13:54.569Z,21.23
2022-11-14T00:16:21.550Z,21.40
2022-11-14T00:18:48.574Z,21.58
2022-11-14T00:21:15.541Z,21.48
2022-11-14T00:23:42.076Z,21.73
2022-11-14T00:26:09.174Z,18.10
2022-11-14T00:28:36.305Z,22.73
2022-11-14T00:31:02.855Z,22.20
2022-11-14T00:33:29.839Z,23.35
2022-11-14T00:35:57.865Z,22.08
2022-11-14T00:38:24.450Z,19.35
2022-11-14T00:40:54.107Z,21.77
2022-11-14T00:43:20.666Z,21.17
2022-11-14T00:45:48.258Z,20.50
2022-11-14T00:48:15.991Z,22.83
2022-11-14T00:50:43.916Z,20.98
2022-11-14T00:53:10.608Z,21.95
2022-11-14T00:55:37.673Z,22.80
2022-11-14T00:58:04.274Z,20.85
2022-11-14T01:00:31.431Z,20.80
2022-11-14T01:02:58.697Z,22.85
2022-11-14T01:05:25.914Z,21.58
2022-11-14T01:07:53.239Z,20.60
2022-11-14T01:10:20.860Z,23.15
2022-11-14T01:12:48.263Z,21.58
2022-11-14T01:15:14.898Z,21.48
2022-11-14T01:17:41.483Z,18.48
2022-11-14T01:20:08.765Z,16.77
2022-11-14T01:22:35.289Z,19.70
2022-11-14T01:25:02.253Z,21.92
2022-11-14T01:27:32.305Z,22.65
2022-11-14T01:29:58.958Z,20.20
2022-11-14T01:32:27.438Z,21.75
2022-11-14T01:34:54.126Z,25.08
2022-11-14T01:37:20.668Z,22.83
2022-11-14T01:39:47.748Z,20.50
2022-11-14T01:42:14.311Z,21.02
2022-11-14T01:44:52.899Z,24.70
2022-11-14T01:47:26.750Z,18.65
2022-11-14T01:49:57.862Z,17.75
2022-11-14T01:52:30.839Z,22.58
2022-11-14T01:55:00.723Z,24.10
2022-11-14T01:57:32.201Z,20.90
2022-11-14T02:00:04.681Z,21.65
2022-11-14T02:02:31.917Z,21.58
2022-11-14T02:05:09.424Z,21.33
2022-11-14T02:07:39.398Z,20.83
2022-11-14T02:10:10.316Z,22.13
2022-11-14T02:12:38.220Z,21.63
2022-11-14T02:15:05.100Z,17.98
2022-11-14T02:17:33.037Z,20.58
2022-11-14T02:20:12.469Z,18.52
2022-11-14T02:22:41.860Z,19.83
2022-11-14T02:25:10.612Z,20.38
2022-11-14T02:27:39.320Z,19.63
2022-11-14T02:30:15.781Z,21.25
2022-11-14T02:33:09.427Z,24.55
2022-11-14T02:35:29.333Z,21.75
2022-11-14T02:37:55.930Z,22.52
2022-11-14T02:40:22.933Z,21.23
2022-11-14T02:42:49.464Z,21.50
2022-11-14T02:45:16.704Z,20.27
2022-11-14T02:47:43.751Z,22.48
2022-11-14T02:50:11.067Z,19.88
2022-11-14T02:52:38.046Z,22.60
2022-11-14T02:55:06.064Z,23.50
2022-11-14T02:57:33.105Z,22.95
2022-11-14T02:59:59.654Z,24.02
2022-11-14T03:02:26.716Z,19.92
2022-11-14T03:04:53.536Z,22.40
2022-11-14T03:07:20.597Z,21.27
2022-11-14T03:09:47.196Z,23.55
2022-11-14T03:12:18.252Z,19.70
2022-11-14T03:14:45.450Z,20.48
2022-11-14T03:17:12.759Z,23.05
2022-11-14T03:19:40.096Z,22.40
2022-11-14T03:22:07.186Z,22.20
2022-11-14T03:24:33.855Z,18.98
2022-11-14T03:27:00.952Z,23.65
2022-11-14T03:29:27.596Z,23.92
2022-11-14T03:31:54.725Z,19.52
2022-11-14T03:34:21.738Z,19.50
2022-11-14T03:36:48.383Z,22.63
2022-11-14T03:39:15.808Z,19.33
2022-11-14T03:41:42.369Z,18.88
2022-11-14T03:44:08.952Z,18.38
2022-11-14T03:46:35.943Z,23.92
2022-11-14T03:49:02.563Z,21.85
2022-11-14T03:51:29.541Z,22.70
2022-11-14T03:53:56.545Z,20.80
2022-11-14T03:56:23.609Z,18.48
2022-11-14T03:58:50.153Z,20.05
2022-11-14T04:01:17.250Z,24.55
2022-11-14T04:03:44.284Z,20.90
2022-11-14T04:06:11.327Z,22.30
2022-11-14T04:08:40.305Z,22.42
2022-11-14T04:11:07.370Z,21.00
2022-11-14T04:13:34.870Z,21.80
2022-11-14T04:16:01.436Z,18.23
2022-11-14T04:18:28.513Z,19.30
2022-11-14T04:20:55.806Z,22.63
2022-11-14T04:23:23.050Z,22.92
2022-11-14T04:25:50.154Z,23.52
2022-11-14T04:28:17.149Z,24.13
2022-11-14T04:30:45.086Z,22.75
2022-11-14T04:33:11.878Z,20.90
2022-11-14T04:35:38.861Z,22.25
2022-11-14T04:38:05.854Z,17.92
2022-11-14T04:40:32.450Z,17.88
2022-11-14T04:42:59.475Z,22.73
2022-11-14T04:45:26.583Z,22.40
2022-11-14T04:47:53.157Z,21.13
2022-11-14T04:50:20.319Z,20.35
2022-11-14T04:52:47.496Z,20.73
2022-11-14T04:55:14.028Z,19.55
2022-11-14T04:57:40.984Z,19.67
2022-11-14T05:00:08.234Z,21.30
2022-11-14T05:02:35.198Z,19.80
2022-11-14T05:05:02.052Z,22.75
2022-11-14T05:07:29.192Z,23.85
2022-11-14T05:09:55.750Z,25.90
2022-11-14T05:12:22.747Z,23.00
2022-11-14T05:14:49.789Z,21.95
2022-11-14T05:17:16.313Z,22.88
2022-11-14T05:22:29.694Z,22.38
2022-11-14T05:24:56.283Z,22.83
2022-11-14T05:27:23.270Z,20.63
2022-11-14T05:29:49.777Z,22.83
2022-11-14T05:32:17.005Z,24.55
2022-11-14T05:34:44.032Z,20.73
2022-11-14T05:37:11.036Z,22.95
2022-11-14T05:39:37.593Z,27.42
2022-11-14T05:42:04.910Z,24.63
2022-11-14T05:44:31.539Z,21.95
2022-11-14T05:46:58.703Z,21.52
2022-11-14T05:49:25.671Z,25.60
2022-11-14T05:51:52.213Z,24.35
2022-11-14T05:54:19.176Z,24.27
2022-11-14T05:56:45.710Z,23.35
2022-11-14T05:59:12.682Z,24.10
2022-11-14T06:01:39.745Z,22.90
2022-11-14T06:04:07.379Z,22.60
2022-11-14T06:06:34.364Z,22.00
2022-11-14T06:09:00.904Z,18.80
2022-11-14T06:11:27.888Z,27.63
2022-11-14T06:13:54.884Z,24.38
2022-11-14T06:16:21.683Z,22.40
2022-11-14T06:18:48.736Z,22.73
2022-11-14T06:21:20.520Z,22.98
2022-11-14T06:23:48.894Z,21.15
2022-11-14T06:26:33.144Z,24.08
2022-11-14T06:29:00.466Z,19.48
2022-11-14T06:31:27.642Z,21.45
2022-11-14T06:33:54.558Z,19.23
2022-11-14T06:36:21.556Z,24.00
2022-11-14T06:38:48.149Z,23.25
2022-11-14T06:41:17.955Z,22.77
2022-11-14T06:43:50.294Z,23.35
2022-11-14T06:46:19.520Z,21.70
2022-11-14T06:48:48.120Z,22.20
2022-11-14T06:51:16.408Z,23.35
2022-11-14T06:53:43.599Z,21.75
2022-11-14T06:56:17.703Z,23.40
2022-11-14T06:58:47.018Z,20.25
2022-11-14T07:01:19.492Z,21.67
2022-11-14T07:03:47.541Z,19.60
2022-11-14T07:06:17.667Z,24.05
2022-11-14T07:08:44.434Z,22.55
2022-11-14T07:11:22.572Z,18.95
2022-11-14T07:13:51.331Z,20.25
2022-11-14T07:16:18.765Z,18.70
2022-11-14T07:18:45.876Z,18.90
2022-11-14T07:21:15.914Z,20.98
2022-11-14T07:23:42.746Z,22.40
2022-11-14T07:26:11.725Z,19.30
2022-11-14T07:28:40.812Z,18.08
2022-11-14T07:31:09.353Z,20.10
2022-11-14T07:33:36.590Z,20.60
2022-11-14T07:36:03.434Z,23.02
2022-11-14T07:38:33.936Z,20.75
2022-11-14T07:41:04.901Z,19.73
2022-11-14T07:43:31.942Z,21.20
2022-11-14T07:46:03.005Z,22.05
2022-11-14T07:48:30.490Z,22.17
2022-11-14T07:51:03.574Z,21.20
2022-11-14T07:53:31.060Z,20.92
2022-11-14T07:56:02.350Z,20.70
2022-11-14T07:58:29.731Z,18.30
2022-11-14T08:01:00.949Z,21.88
2022-11-14T08:03:28.042Z,20.45
2022-11-14T08:06:05.812Z,22.70
2022-11-14T08:08:32.914Z,25.77
2022-11-14T08:11:00.106Z,25.10
2022-11-14T08:13:33.006Z,22.33
2022-11-14T08:16:10.810Z,20.02
2022-11-14T08:18:39.641Z,20.08
2022-11-14T08:21:06.631Z,23.40
2022-11-14T08:23:33.255Z,19.75
2022-11-14T08:26:00.205Z,17.23
2022-11-14T08:28:27.787Z,18.90
2022-11-14T08:31:00.736Z,19.67
2022-11-14T08:33:27.299Z,21.35
2022-11-14T08:35:53.848Z,20.67
2022-11-14T08:38:20.835Z,20.40
2022-11-14T08:40:47.867Z,21.45
2022-11-14T08:43:14.383Z,18.30
2022-11-14T08:45:41.419Z,19.80
2022-11-14T08:48:07.983Z,19.75
2022-11-14T08:50:34.510Z,18.25
2022-11-14T08:53:01.499Z,21.70
2022-11-14T08:55:28.046Z,16.92
2022-11-14T08:57:54.849Z,18.10
2022-11-14T09:00:23.596Z,20.33
2022-11-14T09:02:50.284Z,17.30
2022-11-14T09:05:16.947Z,20.75
2022-11-14T09:07:43.561Z,19.40
2022-11-14T09:10:10.937Z,22.05
2022-11-14T09:12:37.934Z,18.00
2022-11-14T09:15:05.265Z,18.50
2022-11-14T09:17:31.815Z,18.20
2022-11-14T09:19:58.818Z,16.77
2022-11-14T09:22:25.378Z,20.73
2022-11-14T09:24:53.089Z,20.02
2022-11-14T09:27:19.616Z,17.27
2022-11-14T09:29:46.697Z,19.38
2022-11-14T09:32:13.677Z,18.48
2022-11-14T09:34:42.890Z,19.05
2022-11-14T09:37:10.051Z,17.58
2022-11-14T09:39:40.377Z,19.38
2022-11-14T09:42:25.954Z,19.83
2022-11-14T09:44:54.984Z,18.92
2022-11-14T09:47:46.825Z,16.77
2022-11-14T09:50:25.439Z,17.80
2022-11-14T09:53:01.806Z,19.35
2022-11-14T09:55:36.238Z,17.95
2022-11-14T09:58:04.314Z,17.40
2022-11-14T10:00:51.909Z,16.58
2022-11-14T10:03:33.231Z,15.80
2022-11-14T10:06:22.514Z,17.83
2022-11-14T10:09:13.025Z,16.10
2022-11-14T10:11:55.569Z,19.98
2022-11-14T10:14:46.234Z,18.58
2022-11-14T10:17:51.670Z,17.60
2022-11-14T10:20:37.354Z,18.65
2022-11-14T10:23:23.036Z,16.15
2022-11-14T10:26:11.122Z,14.02
2022-11-14T10:29:02.634Z,13.90
2022-11-14T10:31:49.271Z,17.25
2022-11-14T10:34:31.886Z,17.98
2022-11-14T10:37:20.111Z,16.83
2022-11-14T10:39:49.475Z,18.73
2022-11-14T10:42:29.530Z,15.93
2022-11-14T10:45:17.635Z,17.33
2022-11-14T10:47:49.610Z,15.13
2022-11-14T10:50:42.423Z,17.45
2022-11-14T10:53:26.993Z,19.40
2022-11-14T10:56:04.038Z,19.02
2022-11-14T10:58:41.991Z,21.08
2022-11-14T11:01:32.263Z,19.67
2022-11-14T11:04:10.877Z,19.65
2022-11-14T11:06:37.903Z,18.25
2022-11-14T11:09:42.157Z,17.63
2022-11-14T11:12:19.983Z,17.23
2022-11-14T11:14:49.452Z,19.38
2022-11-14T11:17:21.454Z,21.27
2022-11-14T11:19:49.828Z,18.60
2022-11-14T11:22:26.069Z,18.20
2022-11-14T11:24:52.588Z,15.15
2022-11-14T11:27:20.230Z,18.08
2022-11-14T11:29:47.292Z,18.85
2022-11-14T11:32:29.561Z,17.85
2022-11-14T11:34:58.098Z,16.65
2022-11-14T11:37:36.501Z,19.70
2022-11-14T11:40:06.621Z,18.73
2022-11-14T11:43:37.476Z,17.02
2022-11-14T11:45:56.147Z,20.58
2022-11-14T11:48:27.179Z,20.17
2022-11-14T11:50:53.703Z,19.73
2022-11-14T11:53:34.451Z,19.08
2022-11-14T11:56:14.462Z,16.25
2022-11-14T11:59:19.737Z,17.50
2022-11-14T12:01:46.338Z,17.23
2022-11-14T12:04:13.200Z,17.20
2022-11-14T12:06:49.940Z,17.30
2022-11-14T12:09:29.496Z,17.80
2022-11-14T12:12:12.825Z,19.98
2022-11-14T12:14:59.489Z,20.02
2022-11-14T12:17:41.048Z,19.77
2022-11-14T12:20:37.946Z,17.60
2022-11-14T12:23:40.564Z,15.48
2022-11-14T12:26:13.764Z,15.80
2022-11-14T12:29:12.266Z,18.95
2022-11-14T12:31:40.703Z,17.52
2022-11-14T12:34:15.515Z,17.83
2022-11-14T12:36:46.088Z,17.90
2022-11-14T12:39:25.834Z,18.35
2022-11-14T12:42:05.689Z,18.95
2022-11-14T12:44:34.366Z,16.92
2022-11-14T12:47:07.169Z,15.63
2022-11-14T12:49:49.836Z,16.63
2022-11-14T12:52:48.428Z,17.08
2022-11-14T12:55:24.205Z,16.35
2022-11-14T12:58:12.769Z,16.98
2022-11-14T13:00:45.948Z,18.70
2022-11-14T13:03:36.253Z,16.50
2022-11-14T13:06:26.698Z,15.20
2022-11-14T13:09:00.927Z,15.63
2022-11-14T13:12:02.547Z,15.38
2022-11-14T13:14:49.966Z,19.30
2022-11-14T13:17:35.606Z,16.80
2022-11-14T13:20:41.266Z,19.25
2022-11-14T13:23:26.019Z,18.88
2022-11-14T13:26:13.537Z,16.70
2022-11-14T13:28:53.657Z,15.50
2022-11-14T13:31:25.330Z,15.68
2022-11-14T13:34:00.329Z,13.45
2022-11-14T13:36:46.477Z,14.05
2022-11-14T13:39:45.241Z,15.73
2022-11-14T13:42:22.977Z,17.38
2022-11-14T13:45:26.897Z,17.75
2022-11-14T13:48:12.804Z,17.70
2022-11-14T13:50:40.530Z,15.43
2022-11-14T13:53:26.025Z,13.25
2022-11-14T13:55:55.606Z,13.90
2022-11-14T13:58:31.431Z,14.60
2022-11-14T14:01:07.406Z,14.50
2022-11-14T14:04:08.328Z,13.63
2022-11-14T14:06:57.732Z,11.55
2022-11-14T14:09:49.469Z,12.55
2022-11-14T14:12:40.022Z,14.50
2022-11-14T14:15:15.714Z,13.27
2022-11-14T14:18:16.201Z,10.40
2022-11-14T14:20:47.825Z,12.25
2022-11-14T14:23:37.087Z,15.70
2022-11-14T14:26:09.302Z,12.90
2022-11-14T14:29:03.609Z,11.45
2022-11-14T14:31:38.458Z,14.18
2022-11-14T14:34:29.087Z,15.15
2022-11-14T14:36:57.547Z,15.48
2022-11-14T14:39:27.138Z,17.63
2022-11-14T14:41:58.398Z,17.65
2022-11-14T14:44:36.829Z,17.00
2022-11-14T14:47:38.017Z,16.23
2022-11-14T14:50:14.337Z,16.10
2022-11-14T14:52:40.924Z,14.40
2022-11-14T14:55:21.741Z,13.70
2022-11-14T14:57:48.386Z,11.10
2022-11-14T15:00:20.950Z,12.55
2022-11-14T15:02:47.999Z,12.50
2022-11-14T15:05:29.512Z,11.55
2022-11-14T15:07:59.436Z,15.15
2022-11-14T15:10:29.699Z,14.88
2022-11-14T15:12:58.061Z,16.95
2022-11-14T15:15:28.997Z,15.57
2022-11-14T15:17:58.917Z,11.68
2022-11-14T15:20:30.474Z,13.15
2022-11-14T15:23:03.140Z,10.95
2022-11-14T15:25:30.706Z,12.75
2022-11-14T15:28:00.786Z,12.60
2022-11-14T15:30:36.553Z,14.98
2022-11-14T15:33:05.934Z,13.25
2022-11-14T15:35:35.077Z,11.82
2022-11-14T15:38:28.989Z,15.63
2022-11-14T15:41:24.409Z,14.15
2022-11-14T15:43:53.557Z,13.50
2022-11-14T15:46:33.512Z,12.52
2022-11-14T15:49:08.343Z,16.75
2022-11-14T15:51:40.305Z,16.05
2022-11-14T15:54:23.582Z,14.63
2022-11-14T15:56:51.379Z,12.50
2022-11-14T15:59:18.432Z,13.68
2022-11-14T16:01:48.660Z,12.18
2022-11-14T16:04:20.901Z,11.05
2022-11-14T16:06:47.832Z,10.05
2022-11-14T16:09:17.004Z,11.93
2022-11-14T16:11:44.197Z,12.32
2022-11-14T16:14:11.286Z,12.38
2022-11-14T16:16:37.990Z,17.27
2022-11-14T16:19:06.168Z,16.48
2022-11-14T16:21:32.902Z,14.32
2022-11-14T16:23:59.592Z,15.50
2022-11-14T16:26:26.238Z,19.50
2022-11-14T16:28:53.258Z,18.95
2022-11-14T16:31:20.459Z,16.70
2022-11-14T16:33:47.496Z,20.17
2022-11-14T16:36:14.521Z,20.70
2022-11-14T16:38:41.041Z,20.05
2022-11-14T16:41:09.146Z,18.20
2022-11-14T16:43:35.740Z,14.82
2022-11-14T16:46:06.160Z,18.92
2022-11-14T16:48:32.965Z,18.38
2022-11-14T16:51:14.959Z,18.85
2022-11-14T16:53:55.564Z,18.65
2022-11-14T16:56:22.164Z,14.95
2022-11-14T16:58:54.350Z,17.15
2022-11-14T17:01:21.522Z,18.30
2022-11-14T17:03:48.733Z,18.20
2022-11-14T17:06:15.246Z,16.30
2022-11-14T17:08:42.335Z,18.48
2022-11-14T17:11:10.194Z,19.23
2022-11-14T17:13:38.045Z,21.45
2022-11-14T17:16:05.027Z,19.60
2022-11-14T17:18:38.134Z,16.60
2022-11-14T17:21:07.235Z,16.73
2022-11-14T17:23:34.446Z,16.52
2022-11-14T17:26:05.591Z,15.45
2022-11-14T17:28:33.952Z,16.98
2022-11-14T17:31:05.998Z,15.82
2022-11-14T17:33:33.375Z,15.07
2022-11-14T17:36:08.266Z,13.95
2022-11-14T17:38:36.503Z,14.43
2022-11-14T17:41:06.339Z,14.43
2022-11-14T17:43:39.099Z,13.77
2022-11-14T17:46:12.683Z,13.70
2022-11-14T17:48:42.915Z,14.35
2022-11-14T17:51:12.745Z,15.52
2022-11-14T17:53:40.130Z,17.30
2022-11-14T17:56:08.318Z,23.35
2022-11-14T17:58:35.027Z,19.10
2022-11-14T18:01:02.240Z,19.42
2022-11-14T18:03:28.797Z,19.77
2022-11-14T18:06:07.956Z,20.00
2022-11-14T18:08:35.493Z,21.90
2022-11-14T18:11:04.051Z,20.17
2022-11-14T18:13:30.831Z,22.30
2022-11-14T18:16:02.845Z,22.92
2022-11-14T18:18:34.393Z,20.00
2022-11-14T18:21:08.854Z,19.85
2022-11-14T18:23:36.463Z,19.00
2022-11-14T18:26:14.329Z,17.10
2022-11-14T18:28:42.554Z,17.08
2022-11-14T18:31:11.071Z,19.45
2022-11-14T18:33:38.994Z,18.42
2022-11-14T18:36:08.868Z,20.90
2022-11-14T18:38:35.706Z,16.25
2022-11-14T18:41:07.238Z,17.75
2022-11-14T18:43:34.128Z,16.60
2022-11-14T18:46:19.150Z,15.57
2022-11-14T18:48:47.924Z,21.20
2022-11-14T18:51:17.856Z,18.85
2022-11-14T18:53:44.695Z,21.30
2022-11-14T18:56:17.080Z,19.10
2022-11-14T18:58:44.323Z,14.70
2022-11-14T19:01:13.067Z,19.40
2022-11-14T19:03:40.090Z,20.88
2022-11-14T19:06:08.636Z,22.75
2022-11-14T19:08:35.710Z,22.90
2022-11-14T19:11:04.647Z,21.65
2022-11-14T19:13:31.593Z,21.73
2022-11-14T19:16:06.219Z,21.30
2022-11-14T19:18:33.410Z,20.95
2022-11-14T19:21:02.787Z,22.50
2022-11-14T19:23:30.133Z,21.10
2022-11-14T19:26:01.649Z,20.90
2022-11-14T19:28:31.422Z,22.15
2022-11-14T19:31:02.716Z,19.85
2022-11-14T19:33:29.709Z,20.15
2022-11-14T19:35:57.115Z,19.33
2022-11-14T19:38:24.285Z,18.00
2022-11-14T19:40:51.501Z,18.33
2022-11-14T19:43:18.677Z,17.27
2022-11-14T19:45:45.751Z,16.95
2022-11-14T19:48:12.491Z,17.63
2022-11-14T19:50:39.602Z,15.02
2022-11-14T19:53:06.128Z,15.48
2022-11-14T19:55:33.125Z,15.48
2022-11-14T19:57:59.764Z,18.58
2022-11-14T20:00:29.653Z,18.92
2022-11-14T20:02:56.207Z,19.90
2022-11-14T20:05:23.218Z,19.35
2022-11-14T20:07:49.737Z,16.25
2022-11-14T20:10:16.754Z,15.40
2022-11-14T20:12:43.315Z,16.58
2022-11-14T20:15:10.672Z,14.45
2022-11-14T20:17:37.642Z,14.00
2022-11-14T20:20:04.958Z,14.25
2022-11-14T20:22:31.994Z,14.00
2022-11-14T20:24:58.528Z,13.48
2022-11-14T20:27:25.543Z,16.70
2022-11-14T20:29:52.599Z,16.20
2022-11-14T20:32:19.626Z,15.55
2022-11-14T20:34:46.158Z,18.55
2022-11-14T20:37:13.148Z,16.08
2022-11-14T20:39:40.161Z,14.05
2022-11-14T20:42:06.686Z,14.57
2022-11-14T20:44:33.258Z,13.05
2022-11-14T20:46:59.783Z,13.35
2022-11-14T20:49:26.757Z,11.82
2022-11-14T20:51:53.312Z,12.38
2022-11-14T20:54:19.898Z,11.23
2022-11-14T20:56:46.873Z,10.35
2022-11-14T20:59:13.395Z,12.48
2022-11-14T21:01:43.678Z,14.00
2022-11-14T21:04:11.121Z,14.27
2022-11-14T21:06:37.750Z,14.43
2022-11-14T21:09:04.304Z,14.55
2022-11-14T21:11:31.295Z,14.05
2022-11-14T21:13:59.230Z,15.05
2022-11-14T21:16:35.397Z,14.95
2022-11-14T21:19:03.619Z,16.00
2022-11-14T21:21:33.517Z,15.88
2022-11-14T21:24:00.093Z,14.55
2022-11-14T21:26:32.793Z,15.15
2022-11-14T21:29:02.290Z,14.38
2022-11-14T21:31:33.628Z,13.43
2022-11-14T21:34:02.689Z,13.48
2022-11-14T21:36:44.295Z,13.73
2022-11-14T21:39:15.679Z,15.98
2022-11-14T21:41:43.446Z,18.23
2022-11-14T21:44:16.894Z,19.95
2022-11-14T21:46:46.551Z,16.77
2022-11-14T21:49:13.245Z,16.42
2022-11-14T21:51:39.921Z,16.25
2022-11-14T21:54:07.053Z,14.25
2022-11-14T21:56:36.007Z,16.50
2022-11-14T21:59:15.472Z,16.52
2022-11-14T22:02:12.158Z,16.08
2022-11-14T22:04:38.821Z,15.38
2022-11-14T22:07:07.576Z,14.25
2022-11-14T22:09:39.900Z,14.73
2022-11-14T22:12:09.246Z,13.57
2022-11-14T22:14:36.228Z,16.20
2022-11-14T22:17:02.775Z,17.58
2022-11-14T22:19:29.799Z,16.73
2022-11-14T22:21:56.440Z,17.77
2022-11-14T22:24:24.116Z,16.40
2022-11-14T22:26:51.076Z,16.70
2022-11-14T22:29:17.681Z,15.88
2022-11-14T22:31:44.784Z,15.82
2022-11-14T22:34:12.102Z,16.48
2022-11-14T22:36:39.299Z,14.60
2022-11-14T22:39:05.888Z,13.38
2022-11-14T22:41:33.800Z,12.85
2022-11-14T22:44:01.807Z,12.65
2022-11-14T22:46:28.757Z,12.77
2022-11-14T22:48:56.241Z,19.95
2022-11-14T22:51:25.837Z,16.75
2022-11-14T22:53:54.802Z,17.70
2022-11-14T22:56:24.378Z,17.35
2022-11-14T22:58:51.521Z,15.60
2022-11-14T23:01:23.831Z,16.67
2022-11-14T23:04:01.668Z,15.38
2022-11-14T23:06:29.714Z,17.15
2022-11-14T23:08:56.459Z,17.42
2022-11-14T23:11:26.155Z,21.30
2022-11-14T23:13:54.934Z,20.00
2022-11-14T23:16:24.391Z,18.25
2022-11-14T23:18:53.304Z,16.92
2022-11-14T23:21:26.459Z,17.42
2022-11-14T23:23:58.505Z,19.60
2022-11-14T23:26:26.250Z,20.42
2022-11-14T23:28:54.050Z,20.70
2022-11-14T23:31:21.424Z,18.38
2022-11-14T23:33:53.686Z,22.15
2022-11-14T23:36:21.131Z,18.95
2022-11-14T23:38:47.988Z,16.35
2022-11-14T23:41:18.754Z,14.75
2022-11-14T23:43:46.694Z,14.00
2022-11-14T23:46:14.296Z,11.93
2022-11-14T23:48:41.536Z,14.25
2022-11-14T23:51:09.895Z,13.30
2022-11-14T23:53:36.505Z,14.23
2022-11-14T23:56:04.047Z,17.02
2022-11-14T23:58:31.181Z,15.30
